sensor_id;sensor_type;location;lat;lon;timestamp;P1;durP1;ratioP1;P2;durP2;ratioP2
15921;SDS011;8060;50.948;3.146;2022-08-14T05:39:25;15.23;;;11.67;;
15921;SDS011;8060;50.948;3.146;2022-08-14T05:41:53;19.83;;;10.87;;
15921;SDS011;8060;50.948;3.146;2022-08-14T05:44:22;20.33;;;12.07;;
15921;SDS011;8060;50.948;3.146;2022-08-14T05:46:55;19.70;;;11.47;;
15921;SDS011;8060;50.948;3.146;2022-08-14T05:49:23;21.37;;;11.07;;
15921;SDS011;8060;50.948;3.146;2022-08-14T05:51:59;15.03;;;10.83;;
15921;SDS011;8060;50.948;3.146;2022-08-14T05:54:29;17.77;;;11.03;;
15921;SDS011;8060;50.948;3.146;2022-08-14T05:57:01;12.10;;;10.33;;
15921;SDS011;8060;50.948;3.146;2022-08-14T05:59:29;18.17;;;11.50;;
15921;SDS011;8060;50.948;3.146;2022-08-14T06:02:05;16.50;;;10.30;;
15921;SDS011;8060;50.948;3.146;2022-08-14T06:04:35;13.33;;;9.50;;
15921;SDS011;8060;50.948;3.146;2022-08-14T06:07:03;13.83;;;9.40;;
15921;SDS011;8060;50.948;3.146;2022-08-14T06:09:33;11.80;;;9.33;;
15921;SDS011;8060;50.948;3.146;2022-08-14T06:12:06;17.07;;;8.03;;
15921;SDS011;8060;50.948;3.146;2022-08-14T06:14:35;12.67;;;7.97;;
15921;SDS011;8060;50.948;3.146;2022-08-14T06:17:04;15.23;;;8.17;;
15921;SDS011;8060;50.948;3.146;2022-08-14T06:19:32;13.07;;;7.57;;
15921;SDS011;8060;50.948;3.146;2022-08-14T06:22:00;16.17;;;7.30;;
15921;SDS011;8060;50.948;3.146;2022-08-14T06:24:28;9.37;;;7.30;;
15921;SDS011;8060;50.948;3.146;2022-08-14T06:27:02;13.17;;;6.97;;
15921;SDS011;8060;50.948;3.146;2022-08-14T06:29:35;17.03;;;6.90;;
15921;SDS011;8060;50.948;3.146;2022-08-14T06:32:04;13.83;;;7.50;;
15921;SDS011;8060;50.948;3.146;2022-08-14T06:34:52;10.10;;;6.13;;
15921;SDS011;8060;50.948;3.146;2022-08-14T06:37:39;12.90;;;6.33;;
15921;SDS011;8060;50.948;3.146;2022-08-14T06:40:09;10.33;;;5.87;;
15921;SDS011;8060;50.948;3.146;2022-08-14T06:42:54;12.73;;;6.37;;
15921;SDS011;8060;50.948;3.146;2022-08-14T06:45:28;13.70;;;6.80;;
15921;SDS011;8060;50.948;3.146;2022-08-14T06:47:57;10.13;;;6.70;;
15921;SDS011;8060;50.948;3.146;2022-08-14T06:50:26;12.70;;;7.03;;
15921;SDS011;8060;50.948;3.146;2022-08-14T06:52:58;13.07;;;6.07;;
15921;SDS011;8060;50.948;3.146;2022-08-14T06:55:27;9.33;;;6.13;;
15921;SDS011;8060;50.948;3.146;2022-08-14T06:57:56;8.13;;;5.50;;
15921;SDS011;8060;50.948;3.146;2022-08-14T07:00:25;9.50;;;5.90;;
15921;SDS011;8060;50.948;3.146;2022-08-14T07:02:56;10.50;;;6.07;;
15921;SDS011;8060;50.948;3.146;2022-08-14T07:05:42;16.13;;;5.40;;
15921;SDS011;8060;50.948;3.146;2022-08-14T07:08:24;7.63;;;5.40;;
15921;SDS011;8060;50.948;3.146;2022-08-14T07:10:58;9.20;;;6.57;;
15921;SDS011;8060;50.948;3.146;2022-08-14T07:13:30;14.80;;;6.35;;
15921;SDS011;8060;50.948;3.146;2022-08-14T07:15:59;11.90;;;6.70;;
15921;SDS011;8060;50.948;3.146;2022-08-14T07:18:31;7.50;;;6.70;;
15921;SDS011;8060;50.948;3.146;2022-08-14T07:21:01;10.05;;;6.18;;
15921;SDS011;8060;50.948;3.146;2022-08-14T07:23:32;16.20;;;7.03;;
15921;SDS011;8060;50.948;3.146;2022-08-14T07:26:05;13.32;;;7.60;;
15921;SDS011;8060;50.948;3.146;2022-08-14T07:28:38;22.13;;;8.05;;
15921;SDS011;8060;50.948;3.146;2022-08-14T07:31:09;12.48;;;7.95;;
15921;SDS011;8060;50.948;3.146;2022-08-14T07:33:39;11.85;;;6.78;;
15921;SDS011;8060;50.948;3.146;2022-08-14T07:36:16;10.80;;;7.20;;
15921;SDS011;8060;50.948;3.146;2022-08-14T07:38:55;7.63;;;6.10;;
15921;SDS011;8060;50.948;3.146;2022-08-14T07:41:24;8.10;;;6.15;;
15921;SDS011;8060;50.948;3.146;2022-08-14T07:44:00;9.00;;;5.60;;
15921;SDS011;8060;50.948;3.146;2022-08-14T07:46:48;8.43;;;5.40;;
15921;SDS011;8060;50.948;3.146;2022-08-14T07:49:16;12.52;;;5.18;;
15921;SDS011;8060;50.948;3.146;2022-08-14T07:51:45;8.25;;;5.05;;
15921;SDS011;8060;50.948;3.146;2022-08-14T07:54:16;11.63;;;5.28;;
15921;SDS011;8060;50.948;3.146;2022-08-14T07:56:54;5.30;;;4.20;;
15921;SDS011;8060;50.948;3.146;2022-08-14T07:59:26;8.07;;;5.10;;
15921;SDS011;8060;50.948;3.146;2022-08-14T08:02:08;7.43;;;4.90;;
15921;SDS011;8060;50.948;3.146;2022-08-14T08:04:45;5.05;;;4.25;;
15921;SDS011;8060;50.948;3.146;2022-08-14T08:07:19;7.43;;;4.47;;
15921;SDS011;8060;50.948;3.146;2022-08-14T08:09:48;7.50;;;3.97;;
15921;SDS011;8060;50.948;3.146;2022-08-14T08:12:20;8.80;;;4.45;;
15921;SDS011;8060;50.948;3.146;2022-08-14T08:14:57;13.20;;;4.60;;
15921;SDS011;8060;50.948;3.146;2022-08-14T08:17:33;5.57;;;4.25;;
15921;SDS011;8060;50.948;3.146;2022-08-14T08:20:11;9.02;;;4.40;;
15921;SDS011;8060;50.948;3.146;2022-08-14T08:22:45;6.53;;;3.95;;
15921;SDS011;8060;50.948;3.146;2022-08-14T08:25:21;8.90;;;4.60;;
15921;SDS011;8060;50.948;3.146;2022-08-14T08:27:57;8.25;;;4.60;;
15921;SDS011;8060;50.948;3.146;2022-08-14T08:30:36;8.18;;;4.18;;
15921;SDS011;8060;50.948;3.146;2022-08-14T08:33:15;8.50;;;3.78;;
15921;SDS011;8060;50.948;3.146;2022-08-14T08:35:44;16.23;;;4.20;;
15921;SDS011;8060;50.948;3.146;2022-08-14T08:38:16;12.38;;;4.30;;
15921;SDS011;8060;50.948;3.146;2022-08-14T08:41:06;8.52;;;3.92;;
15921;SDS011;8060;50.948;3.146;2022-08-14T08:43:37;7.25;;;3.60;;
15921;SDS011;8060;50.948;3.146;2022-08-14T08:46:13;10.70;;;3.80;;
15921;SDS011;8060;50.948;3.146;2022-08-14T08:48:49;6.28;;;3.20;;
15921;SDS011;8060;50.948;3.146;2022-08-14T08:51:19;5.60;;;2.72;;
15921;SDS011;8060;50.948;3.146;2022-08-14T08:53:56;6.18;;;3.10;;
15921;SDS011;8060;50.948;3.146;2022-08-14T08:56:33;7.55;;;2.90;;
15921;SDS011;8060;50.948;3.146;2022-08-14T08:59:15;7.82;;;2.90;;
15921;SDS011;8060;50.948;3.146;2022-08-14T09:01:48;5.65;;;2.60;;
15921;SDS011;8060;50.948;3.146;2022-08-14T09:04:23;9.25;;;2.80;;
15921;SDS011;8060;50.948;3.146;2022-08-14T09:06:52;4.95;;;2.60;;
15921;SDS011;8060;50.948;3.146;2022-08-14T09:09:36;4.15;;;2.42;;
15921;SDS011;8060;50.948;3.146;2022-08-14T09:12:23;8.02;;;3.00;;
15921;SDS011;8060;50.948;3.146;2022-08-14T09:15:02;5.97;;;2.78;;
15921;SDS011;8060;50.948;3.146;2022-08-14T09:17:39;6.18;;;2.58;;
15921;SDS011;8060;50.948;3.146;2022-08-14T09:20:08;6.10;;;2.40;;
15921;SDS011;8060;50.948;3.146;2022-08-14T09:22:38;3.13;;;2.42;;
15921;SDS011;8060;50.948;3.146;2022-08-14T09:25:13;3.22;;;2.30;;
15921;SDS011;8060;50.948;3.146;2022-08-14T09:27:45;7.30;;;2.42;;
15921;SDS011;8060;50.948;3.146;2022-08-14T09:30:13;3.67;;;2.20;;
15921;SDS011;8060;50.948;3.146;2022-08-14T09:33:06;9.52;;;2.38;;
15921;SDS011;8060;50.948;3.146;2022-08-14T09:35:55;7.10;;;2.40;;
15921;SDS011;8060;50.948;3.146;2022-08-14T09:38:37;3.95;;;2.20;;
15921;SDS011;8060;50.948;3.146;2022-08-14T09:41:17;5.95;;;2.38;;
15921;SDS011;8060;50.948;3.146;2022-08-14T09:44:27;9.23;;;2.40;;
15921;SDS011;8060;50.948;3.146;2022-08-14T09:47:08;4.80;;;2.40;;
15921;SDS011;8060;50.948;3.146;2022-08-14T09:49:41;7.68;;;2.35;;
15921;SDS011;8060;50.948;3.146;2022-08-14T09:52:18;10.90;;;2.17;;
15921;SDS011;8060;50.948;3.146;2022-08-14T09:54:58;4.90;;;2.30;;
15921;SDS011;8060;50.948;3.146;2022-08-14T09:57:28;6.63;;;2.15;;
15921;SDS011;8060;50.948;3.146;2022-08-14T10:00:08;3.15;;;2.40;;
15921;SDS011;8060;50.948;3.146;2022-08-14T10:02:56;2.53;;;1.92;;
15921;SDS011;8060;50.948;3.146;2022-08-14T10:05:33;6.57;;;2.13;;
15921;SDS011;8060;50.948;3.146;2022-08-14T10:08:14;7.18;;;1.75;;
15921;SDS011;8060;50.948;3.146;2022-08-14T10:10:51;3.03;;;1.80;;
15921;SDS011;8060;50.948;3.146;2022-08-14T10:13:28;2.58;;;1.60;;
15921;SDS011;8060;50.948;3.146;2022-08-14T10:16:16;5.75;;;1.48;;
15921;SDS011;8060;50.948;3.146;2022-08-14T10:19:00;3.22;;;1.77;;
15921;SDS011;8060;50.948;3.146;2022-08-14T10:21:34;6.40;;;1.77;;
15921;SDS011;8060;50.948;3.146;2022-08-14T10:24:23;2.45;;;1.77;;
15921;SDS011;8060;50.948;3.146;2022-08-14T10:27:03;7.47;;;1.80;;
15921;SDS011;8060;50.948;3.146;2022-08-14T10:29:42;6.30;;;1.83;;
15921;SDS011;8060;50.948;3.146;2022-08-14T10:32:16;2.05;;;1.75;;
15921;SDS011;8060;50.948;3.146;2022-08-14T10:35:03;2.78;;;1.40;;
15921;SDS011;8060;50.948;3.146;2022-08-14T10:37:41;3.08;;;1.60;;
15921;SDS011;8060;50.948;3.146;2022-08-14T10:40:15;3.50;;;1.65;;
15921;SDS011;8060;50.948;3.146;2022-08-14T10:43:17;1.98;;;1.13;;
15921;SDS011;8060;50.948;3.146;2022-08-14T10:45:52;2.90;;;1.70;;
15921;SDS011;8060;50.948;3.146;2022-08-14T10:48:55;5.18;;;1.40;;
15921;SDS011;8060;50.948;3.146;2022-08-14T10:51:24;4.38;;;1.38;;
15921;SDS011;8060;50.948;3.146;2022-08-14T10:54:05;2.42;;;1.20;;
15921;SDS011;8060;50.948;3.146;2022-08-14T10:56:55;3.80;;;1.30;;
15921;SDS011;8060;50.948;3.146;2022-08-14T10:59:23;2.58;;;1.42;;
15921;SDS011;8060;50.948;3.146;2022-08-14T11:02:00;2.60;;;1.20;;
15921;SDS011;8060;50.948;3.146;2022-08-14T11:04:28;3.72;;;1.40;;
15921;SDS011;8060;50.948;3.146;2022-08-14T11:06:58;2.75;;;1.38;;
15921;SDS011;8060;50.948;3.146;2022-08-14T11:09:28;4.18;;;1.60;;
15921;SDS011;8060;50.948;3.146;2022-08-14T11:11:57;2.20;;;1.50;;
15921;SDS011;8060;50.948;3.146;2022-08-14T11:14:50;6.30;;;1.60;;
15921;SDS011;8060;50.948;3.146;2022-08-14T11:17:27;4.93;;;1.40;;
15921;SDS011;8060;50.948;3.146;2022-08-14T11:19:58;4.80;;;1.40;;
15921;SDS011;8060;50.948;3.146;2022-08-14T11:22:28;2.38;;;1.40;;
15921;SDS011;8060;50.948;3.146;2022-08-14T11:25:20;2.38;;;1.50;;
15921;SDS011;8060;50.948;3.146;2022-08-14T11:28:02;2.55;;;1.67;;
15921;SDS011;8060;50.948;3.146;2022-08-14T11:30:36;4.00;;;1.55;;
15921;SDS011;8060;50.948;3.146;2022-08-14T11:33:20;2.35;;;1.35;;
15921;SDS011;8060;50.948;3.146;2022-08-14T11:35:50;2.92;;;1.38;;
15921;SDS011;8060;50.948;3.146;2022-08-14T11:38:24;5.40;;;1.60;;
15921;SDS011;8060;50.948;3.146;2022-08-14T11:40:56;4.90;;;1.70;;
15921;SDS011;8060;50.948;3.146;2022-08-14T11:43:26;5.00;;;1.60;;
15921;SDS011;8060;50.948;3.146;2022-08-14T11:45:59;3.28;;;1.30;;
15921;SDS011;8060;50.948;3.146;2022-08-14T11:48:31;3.65;;;1.08;;
15921;SDS011;8060;50.948;3.146;2022-08-14T11:51:20;4.82;;;1.50;;
15921;SDS011;8060;50.948;3.146;2022-08-14T11:53:56;1.65;;;1.33;;
15921;SDS011;8060;50.948;3.146;2022-08-14T11:56:34;4.18;;;1.35;;
15921;SDS011;8060;50.948;3.146;2022-08-14T11:59:05;5.32;;;1.48;;
15921;SDS011;8060;50.948;3.146;2022-08-14T12:01:36;4.63;;;1.40;;
15921;SDS011;8060;50.948;3.146;2022-08-14T12:04:07;1.70;;;1.27;;
15921;SDS011;8060;50.948;3.146;2022-08-14T12:06:56;4.90;;;1.48;;
15921;SDS011;8060;50.948;3.146;2022-08-14T12:09:27;3.00;;;1.40;;
15921;SDS011;8060;50.948;3.146;2022-08-14T12:11:57;2.47;;;1.50;;
15921;SDS011;8060;50.948;3.146;2022-08-14T12:14:26;2.72;;;1.23;;
15921;SDS011;8060;50.948;3.146;2022-08-14T12:17:05;5.45;;;1.45;;
15921;SDS011;8060;50.948;3.146;2022-08-14T12:22:32;3.22;;;1.40;;
15921;SDS011;8060;50.948;3.146;2022-08-14T12:25:03;2.63;;;1.38;;
15921;SDS011;8060;50.948;3.146;2022-08-14T12:27:39;2.78;;;1.15;;
15921;SDS011;8060;50.948;3.146;2022-08-14T12:30:24;2.63;;;1.20;;
15921;SDS011;8060;50.948;3.146;2022-08-14T12:33:05;5.70;;;1.15;;
15921;SDS011;8060;50.948;3.146;2022-08-14T12:35:50;2.10;;;1.20;;
15921;SDS011;8060;50.948;3.146;2022-08-14T12:38:32;4.97;;;1.30;;
15921;SDS011;8060;50.948;3.146;2022-08-14T12:41:08;2.65;;;1.20;;
15921;SDS011;8060;50.948;3.146;2022-08-14T12:43:48;10.07;;;1.23;;
15921;SDS011;8060;50.948;3.146;2022-08-14T12:46:22;5.53;;;1.48;;
15921;SDS011;8060;50.948;3.146;2022-08-14T12:48:53;3.55;;;1.10;;
15921;SDS011;8060;50.948;3.146;2022-08-14T12:51:23;4.55;;;1.15;;
15921;SDS011;8060;50.948;3.146;2022-08-14T12:53:52;4.30;;;1.15;;
15921;SDS011;8060;50.948;3.146;2022-08-14T12:56:25;3.88;;;1.30;;
15921;SDS011;8060;50.948;3.146;2022-08-14T12:59:00;4.47;;;1.08;;
15921;SDS011;8060;50.948;3.146;2022-08-14T13:01:30;2.75;;;1.45;;
15921;SDS011;8060;50.948;3.146;2022-08-14T13:04:19;1.88;;;1.40;;
15921;SDS011;8060;50.948;3.146;2022-08-14T13:06:48;2.55;;;1.60;;
15921;SDS011;8060;50.948;3.146;2022-08-14T13:09:18;2.20;;;1.42;;
15921;SDS011;8060;50.948;3.146;2022-08-14T13:12:02;4.45;;;1.60;;
15921;SDS011;8060;50.948;3.146;2022-08-14T13:14:52;3.30;;;1.60;;
15921;SDS011;8060;50.948;3.146;2022-08-14T13:17:27;10.23;;;1.90;;
15921;SDS011;8060;50.948;3.146;2022-08-14T13:20:03;5.35;;;1.52;;
15921;SDS011;8060;50.948;3.146;2022-08-14T13:22:36;4.78;;;1.70;;
15921;SDS011;8060;50.948;3.146;2022-08-14T13:25:09;5.00;;;1.90;;
15921;SDS011;8060;50.948;3.146;2022-08-14T13:27:41;2.20;;;1.60;;
15921;SDS011;8060;50.948;3.146;2022-08-14T13:30:13;3.33;;;1.40;;
15921;SDS011;8060;50.948;3.146;2022-08-14T13:32:50;4.15;;;1.38;;
15921;SDS011;8060;50.948;3.146;2022-08-14T13:35:19;6.30;;;1.40;;
15921;SDS011;8060;50.948;3.146;2022-08-14T13:37:48;3.20;;;1.50;;
15921;SDS011;8060;50.948;3.146;2022-08-14T13:40:19;6.35;;;1.35;;
15921;SDS011;8060;50.948;3.146;2022-08-14T13:42:52;3.97;;;1.40;;
15921;SDS011;8060;50.948;3.146;2022-08-14T13:45:24;3.05;;;1.42;;
15921;SDS011;8060;50.948;3.146;2022-08-14T13:48:13;4.10;;;1.40;;
15921;SDS011;8060;50.948;3.146;2022-08-14T13:50:58;4.25;;;1.50;;
15921;SDS011;8060;50.948;3.146;2022-08-14T13:53:28;20.67;;;2.17;;
15921;SDS011;8060;50.948;3.146;2022-08-14T13:56:03;3.80;;;1.27;;
15921;SDS011;8060;50.948;3.146;2022-08-14T13:58:40;2.08;;;1.40;;
15921;SDS011;8060;50.948;3.146;2022-08-14T14:01:14;3.72;;;1.27;;
15921;SDS011;8060;50.948;3.146;2022-08-14T14:03:44;3.53;;;1.30;;
15921;SDS011;8060;50.948;3.146;2022-08-14T14:06:19;3.55;;;1.10;;
15921;SDS011;8060;50.948;3.146;2022-08-14T14:08:51;2.90;;;1.30;;
15921;SDS011;8060;50.948;3.146;2022-08-14T14:11:24;2.15;;;1.05;;
15921;SDS011;8060;50.948;3.146;2022-08-14T14:13:56;2.63;;;1.17;;
15921;SDS011;8060;50.948;3.146;2022-08-14T14:16:26;2.53;;;1.30;;
15921;SDS011;8060;50.948;3.146;2022-08-14T14:18:56;2.25;;;1.00;;
15921;SDS011;8060;50.948;3.146;2022-08-14T14:21:35;4.78;;;1.30;;
15921;SDS011;8060;50.948;3.146;2022-08-14T14:24:06;4.30;;;1.30;;
15921;SDS011;8060;50.948;3.146;2022-08-14T14:26:42;3.45;;;1.30;;
15921;SDS011;8060;50.948;3.146;2022-08-14T14:29:12;1.27;;;1.17;;
15921;SDS011;8060;50.948;3.146;2022-08-14T14:31:43;2.25;;;1.02;;
15921;SDS011;8060;50.948;3.146;2022-08-14T14:34:15;2.10;;;1.00;;
15921;SDS011;8060;50.948;3.146;2022-08-14T14:36:55;4.47;;;1.20;;
15921;SDS011;8060;50.948;3.146;2022-08-14T14:39:28;1.90;;;1.10;;
15921;SDS011;8060;50.948;3.146;2022-08-14T14:42:03;1.20;;;1.02;;
15921;SDS011;8060;50.948;3.146;2022-08-14T14:44:35;1.67;;;1.05;;
15921;SDS011;8060;50.948;3.146;2022-08-14T14:47:08;2.10;;;1.08;;
15921;SDS011;8060;50.948;3.146;2022-08-14T14:49:37;2.03;;;0.88;;
15921;SDS011;8060;50.948;3.146;2022-08-14T14:52:20;1.52;;;1.13;;
15921;SDS011;8060;50.948;3.146;2022-08-14T14:54:54;3.05;;;1.35;;
15921;SDS011;8060;50.948;3.146;2022-08-14T14:57:24;5.07;;;1.08;;
15921;SDS011;8060;50.948;3.146;2022-08-14T15:00:02;5.35;;;1.35;;
15921;SDS011;8060;50.948;3.146;2022-08-14T15:02:39;1.92;;;0.90;;
15921;SDS011;8060;50.948;3.146;2022-08-14T15:05:10;3.90;;;1.23;;
15921;SDS011;8060;50.948;3.146;2022-08-14T15:07:41;1.35;;;1.20;;
15921;SDS011;8060;50.948;3.146;2022-08-14T15:10:11;2.67;;;1.30;;
15921;SDS011;8060;50.948;3.146;2022-08-14T15:12:55;3.20;;;1.50;;
15921;SDS011;8060;50.948;3.146;2022-08-14T15:15:29;6.93;;;1.20;;
15921;SDS011;8060;50.948;3.146;2022-08-14T15:17:59;4.40;;;1.40;;
15921;SDS011;8060;50.948;3.146;2022-08-14T15:20:31;4.35;;;1.40;;
15921;SDS011;8060;50.948;3.146;2022-08-14T15:22:59;2.17;;;1.20;;
15921;SDS011;8060;50.948;3.146;2022-08-14T15:25:37;7.30;;;1.30;;
15921;SDS011;8060;50.948;3.146;2022-08-14T15:28:06;4.28;;;1.40;;
15921;SDS011;8060;50.948;3.146;2022-08-14T15:30:38;5.57;;;1.27;;
15921;SDS011;8060;50.948;3.146;2022-08-14T15:33:08;3.50;;;1.40;;
15921;SDS011;8060;50.948;3.146;2022-08-14T15:35:39;4.00;;;1.40;;
15921;SDS011;8060;50.948;3.146;2022-08-14T15:38:11;2.13;;;1.48;;
15921;SDS011;8060;50.948;3.146;2022-08-14T15:40:43;2.95;;;1.48;;
15921;SDS011;8060;50.948;3.146;2022-08-14T15:43:21;2.08;;;1.50;;
15921;SDS011;8060;50.948;3.146;2022-08-14T15:45:56;2.15;;;1.50;;
15921;SDS011;8060;50.948;3.146;2022-08-14T15:48:27;2.33;;;1.33;;
15921;SDS011;8060;50.948;3.146;2022-08-14T15:50:57;4.90;;;1.55;;
15921;SDS011;8060;50.948;3.146;2022-08-14T15:53:25;2.92;;;1.40;;
15921;SDS011;8060;50.948;3.146;2022-08-14T15:55:57;6.05;;;1.38;;
15921;SDS011;8060;50.948;3.146;2022-08-14T15:58:25;4.95;;;1.50;;
15921;SDS011;8060;50.948;3.146;2022-08-14T16:00:54;4.13;;;1.40;;
15921;SDS011;8060;50.948;3.146;2022-08-14T16:04:01;4.13;;;1.40;;
15921;SDS011;8060;50.948;3.146;2022-08-14T16:06:32;5.45;;;1.33;;
15921;SDS011;8060;50.948;3.146;2022-08-14T16:09:02;5.95;;;1.50;;
15921;SDS011;8060;50.948;3.146;2022-08-14T16:11:36;2.47;;;1.33;;
15921;SDS011;8060;50.948;3.146;2022-08-14T16:14:16;3.20;;;1.48;;
15921;SDS011;8060;50.948;3.146;2022-08-14T16:16:47;1.83;;;1.50;;
15921;SDS011;8060;50.948;3.146;2022-08-14T16:19:28;2.10;;;1.38;;
15921;SDS011;8060;50.948;3.146;2022-08-14T16:22:09;6.80;;;1.60;;
15921;SDS011;8060;50.948;3.146;2022-08-14T16:24:59;8.27;;;1.60;;
15921;SDS011;8060;50.948;3.146;2022-08-14T16:27:29;3.30;;;1.27;;
15921;SDS011;8060;50.948;3.146;2022-08-14T16:30:05;3.38;;;1.40;;
15921;SDS011;8060;50.948;3.146;2022-08-14T16:32:50;2.42;;;1.55;;
15921;SDS011;8060;50.948;3.146;2022-08-14T16:35:22;1.70;;;1.33;;
15921;SDS011;8060;50.948;3.146;2022-08-14T16:38:13;2.28;;;1.38;;
15921;SDS011;8060;50.948;3.146;2022-08-14T16:41:03;4.95;;;1.48;;
15921;SDS011;8060;50.948;3.146;2022-08-14T16:43:49;2.33;;;1.77;;
15921;SDS011;8060;50.948;3.146;2022-08-14T16:46:25;1.98;;;1.60;;
15921;SDS011;8060;50.948;3.146;2022-08-14T16:48:53;4.10;;;1.40;;
15921;SDS011;8060;50.948;3.146;2022-08-14T16:51:25;3.17;;;1.77;;
15921;SDS011;8060;50.948;3.146;2022-08-14T16:54:02;6.97;;;2.10;;
15921;SDS011;8060;50.948;3.146;2022-08-14T16:56:52;4.00;;;1.80;;
15921;SDS011;8060;50.948;3.146;2022-08-14T16:59:21;4.95;;;1.75;;
15921;SDS011;8060;50.948;3.146;2022-08-14T17:01:59;3.00;;;1.77;;
15921;SDS011;8060;50.948;3.146;2022-08-14T17:04:30;3.72;;;1.77;;
15921;SDS011;8060;50.948;3.146;2022-08-14T17:07:09;4.25;;;1.83;;
15921;SDS011;8060;50.948;3.146;2022-08-14T17:09:39;2.63;;;1.58;;
15921;SDS011;8060;50.948;3.146;2022-08-14T17:12:11;4.40;;;1.33;;
15921;SDS011;8060;50.948;3.146;2022-08-14T17:15:01;1.92;;;1.40;;
15921;SDS011;8060;50.948;3.146;2022-08-14T17:17:45;7.95;;;1.70;;
15921;SDS011;8060;50.948;3.146;2022-08-14T17:20:23;4.47;;;1.70;;
15921;SDS011;8060;50.948;3.146;2022-08-14T17:23:14;5.25;;;1.52;;
15921;SDS011;8060;50.948;3.146;2022-08-14T17:25:42;2.33;;;1.35;;
15921;SDS011;8060;50.948;3.146;2022-08-14T17:28:17;2.47;;;1.50;;
15921;SDS011;8060;50.948;3.146;2022-08-14T17:31:06;1.95;;;1.52;;
15921;SDS011;8060;50.948;3.146;2022-08-14T17:33:35;4.80;;;1.70;;
15921;SDS011;8060;50.948;3.146;2022-08-14T17:36:10;2.55;;;1.60;;
15921;SDS011;8060;50.948;3.146;2022-08-14T17:41:39;2.95;;;1.60;;
15921;SDS011;8060;50.948;3.146;2022-08-14T17:47:11;4.93;;;1.55;;
15921;SDS011;8060;50.948;3.146;2022-08-14T17:49:44;6.28;;;1.80;;
15921;SDS011;8060;50.948;3.146;2022-08-14T17:52:18;2.65;;;1.70;;
15921;SDS011;8060;50.948;3.146;2022-08-14T17:55:02;3.40;;;1.67;;
15921;SDS011;8060;50.948;3.146;2022-08-14T17:57:32;3.58;;;1.70;;
15921;SDS011;8060;50.948;3.146;2022-08-14T18:00:07;3.05;;;1.60;;
15921;SDS011;8060;50.948;3.146;2022-08-14T18:02:40;3.83;;;1.60;;
15921;SDS011;8060;50.948;3.146;2022-08-14T18:05:16;4.20;;;1.50;;
15921;SDS011;8060;50.948;3.146;2022-08-14T18:08:04;4.72;;;1.77;;
15921;SDS011;8060;50.948;3.146;2022-08-14T18:10:54;3.78;;;1.42;;
15921;SDS011;8060;50.948;3.146;2022-08-14T18:13:25;4.18;;;1.63;;
15921;SDS011;8060;50.948;3.146;2022-08-14T18:16:14;8.77;;;1.80;;
15921;SDS011;8060;50.948;3.146;2022-08-14T18:18:48;4.75;;;1.38;;
15921;SDS011;8060;50.948;3.146;2022-08-14T18:21:17;8.82;;;1.73;;
15921;SDS011;8060;50.948;3.146;2022-08-14T18:24:08;8.68;;;1.73;;
15921;SDS011;8060;50.948;3.146;2022-08-14T18:26:58;4.15;;;1.50;;
15921;SDS011;8060;50.948;3.146;2022-08-14T18:29:38;5.28;;;1.67;;
15921;SDS011;8060;50.948;3.146;2022-08-14T18:35:13;3.08;;;1.50;;
15921;SDS011;8060;50.948;3.146;2022-08-14T18:37:44;4.28;;;1.80;;
15921;SDS011;8060;50.948;3.146;2022-08-14T18:40:25;7.68;;;1.83;;
15921;SDS011;8060;50.948;3.146;2022-08-14T18:43:01;4.65;;;1.85;;
15921;SDS011;8060;50.948;3.146;2022-08-14T18:45:30;7.72;;;2.00;;
15921;SDS011;8060;50.948;3.146;2022-08-14T18:48:23;2.83;;;2.03;;
15921;SDS011;8060;50.948;3.146;2022-08-14T18:51:13;7.18;;;2.03;;
15921;SDS011;8060;50.948;3.146;2022-08-14T18:54:25;4.78;;;2.30;;
15921;SDS011;8060;50.948;3.146;2022-08-14T18:56:58;9.20;;;2.03;;
15921;SDS011;8060;50.948;3.146;2022-08-14T18:59:29;3.05;;;2.00;;
15921;SDS011;8060;50.948;3.146;2022-08-14T19:05:08;8.07;;;2.20;;
15921;SDS011;8060;50.948;3.146;2022-08-14T19:07:37;7.05;;;2.35;;
15921;SDS011;8060;50.948;3.146;2022-08-14T19:10:06;4.75;;;2.08;;
15921;SDS011;8060;50.948;3.146;2022-08-14T19:12:55;5.88;;;2.45;;
15921;SDS011;8060;50.948;3.146;2022-08-14T19:15:27;13.25;;;2.50;;
15921;SDS011;8060;50.948;3.146;2022-08-14T19:17:57;6.00;;;2.78;;
15921;SDS011;8060;50.948;3.146;2022-08-14T19:20:43;7.40;;;2.50;;
15921;SDS011;8060;50.948;3.146;2022-08-14T19:23:13;10.98;;;2.50;;
15921;SDS011;8060;50.948;3.146;2022-08-14T19:25:47;8.55;;;2.40;;
15921;SDS011;8060;50.948;3.146;2022-08-14T19:28:19;6.30;;;2.22;;
15921;SDS011;8060;50.948;3.146;2022-08-14T19:34:09;5.47;;;2.33;;
15921;SDS011;8060;50.948;3.146;2022-08-14T19:36:55;5.93;;;2.40;;
15921;SDS011;8060;50.948;3.146;2022-08-14T19:39:45;4.55;;;2.25;;
15921;SDS011;8060;50.948;3.146;2022-08-14T19:42:20;7.88;;;2.30;;
15921;SDS011;8060;50.948;3.146;2022-08-14T19:44:55;6.72;;;2.22;;
15921;SDS011;8060;50.948;3.146;2022-08-14T19:47:31;4.10;;;2.38;;
15921;SDS011;8060;50.948;3.146;2022-08-14T19:50:08;5.47;;;2.33;;
15921;SDS011;8060;50.948;3.146;2022-08-14T19:53:06;7.93;;;2.38;;
15921;SDS011;8060;50.948;3.146;2022-08-14T19:55:43;6.10;;;2.28;;
15921;SDS011;8060;50.948;3.146;2022-08-14T19:58:35;3.50;;;2.47;;
15921;SDS011;8060;50.948;3.146;2022-08-14T20:01:23;5.55;;;2.20;;
15921;SDS011;8060;50.948;3.146;2022-08-14T20:04:03;8.50;;;2.00;;
15921;SDS011;8060;50.948;3.146;2022-08-14T20:06:54;4.45;;;2.10;;
15921;SDS011;8060;50.948;3.146;2022-08-14T20:09:25;5.95;;;2.47;;
15921;SDS011;8060;50.948;3.146;2022-08-14T20:12:17;5.85;;;2.17;;
15921;SDS011;8060;50.948;3.146;2022-08-14T20:15:03;5.80;;;2.00;;
15921;SDS011;8060;50.948;3.146;2022-08-14T20:17:34;8.45;;;2.20;;
15921;SDS011;8060;50.948;3.146;2022-08-14T20:20:13;5.93;;;1.90;;
15921;SDS011;8060;50.948;3.146;2022-08-14T20:22:57;5.22;;;1.60;;
15921;SDS011;8060;50.948;3.146;2022-08-14T20:25:37;7.72;;;2.10;;
15921;SDS011;8060;50.948;3.146;2022-08-14T20:28:22;4.63;;;2.00;;
15921;SDS011;8060;50.948;3.146;2022-08-14T20:31:09;7.80;;;1.85;;
15921;SDS011;8060;50.948;3.146;2022-08-14T20:36:31;4.43;;;2.00;;
15921;SDS011;8060;50.948;3.146;2022-08-14T20:39:08;8.40;;;1.90;;
15921;SDS011;8060;50.948;3.146;2022-08-14T20:41:41;4.63;;;1.90;;
15921;SDS011;8060;50.948;3.146;2022-08-14T20:44:19;8.07;;;1.92;;
15921;SDS011;8060;50.948;3.146;2022-08-14T20:47:05;7.70;;;2.10;;
15921;SDS011;8060;50.948;3.146;2022-08-14T20:49:33;4.93;;;1.80;;
15921;SDS011;8060;50.948;3.146;2022-08-14T20:52:05;7.45;;;1.80;;
15921;SDS011;8060;50.948;3.146;2022-08-14T20:54:46;8.82;;;1.80;;
15921;SDS011;8060;50.948;3.146;2022-08-14T20:57:17;6.38;;;1.80;;
15921;SDS011;8060;50.948;3.146;2022-08-14T20:59:47;7.10;;;1.80;;
15921;SDS011;8060;50.948;3.146;2022-08-14T21:02:28;3.13;;;1.80;;
15921;SDS011;8060;50.948;3.146;2022-08-14T21:05:15;8.75;;;2.17;;
15921;SDS011;8060;50.948;3.146;2022-08-14T21:07:59;4.82;;;2.03;;
15921;SDS011;8060;50.948;3.146;2022-08-14T21:10:47;2.97;;;1.90;;
15921;SDS011;8060;50.948;3.146;2022-08-14T21:13:18;8.02;;;2.00;;
15921;SDS011;8060;50.948;3.146;2022-08-14T21:16:06;5.47;;;2.05;;
15921;SDS011;8060;50.948;3.146;2022-08-14T21:18:56;7.07;;;2.00;;
15921;SDS011;8060;50.948;3.146;2022-08-14T21:21:27;8.27;;;1.92;;
15921;SDS011;8060;50.948;3.146;2022-08-14T21:24:07;4.63;;;2.20;;
15921;SDS011;8060;50.948;3.146;2022-08-14T21:26:56;7.57;;;2.20;;
15921;SDS011;8060;50.948;3.146;2022-08-14T21:29:38;5.05;;;2.70;;
15921;SDS011;8060;50.948;3.146;2022-08-14T21:32:20;10.93;;;2.15;;
15921;SDS011;8060;50.948;3.146;2022-08-14T21:35:02;8.38;;;2.33;;
15921;SDS011;8060;50.948;3.146;2022-08-14T21:37:34;5.88;;;2.33;;
15921;SDS011;8060;50.948;3.146;2022-08-14T21:40:09;6.15;;;2.60;;
15921;SDS011;8060;50.948;3.146;2022-08-14T21:42:58;3.42;;;2.30;;
15921;SDS011;8060;50.948;3.146;2022-08-14T21:45:26;5.95;;;2.47;;
15921;SDS011;8060;50.948;3.146;2022-08-14T21:48:01;4.43;;;2.00;;
15921;SDS011;8060;50.948;3.146;2022-08-14T21:50:37;3.72;;;1.85;;
15921;SDS011;8060;50.948;3.146;2022-08-14T21:53:28;3.92;;;2.30;;